createdAt,value
2023-05-02T00:00:22.087Z,10.69
2023-05-02T00:01:22.587Z,10.65
2023-05-02T00:02:23.600Z,10.67
2023-05-02T00:03:24.214Z,10.62
2023-05-02T00:04:24.326Z,10.68
2023-05-02T00:05:24.336Z,10.72
2023-05-02T00:06:25.203Z,10.71
2023-05-02T00:07:26.310Z,10.72
2023-05-02T00:08:26.608Z,10.72
2023-05-02T00:09:27.432Z,10.71
2023-05-02T00:10:28.005Z,10.71
2023-05-02T00:11:29.184Z,10.69
2023-05-02T00:12:29.877Z,10.69
2023-05-02T00:13:30.130Z,10.69
2023-05-02T00:14:30.203Z,10.72
2023-05-02T00:15:30.706Z,10.61
2023-05-02T00:16:31.556Z,10.77
2023-05-02T00:17:32.502Z,10.8
2023-05-02T00:18:32.588Z,10.59
2023-05-02T00:19:34.059Z,10.58
2023-05-02T00:20:34.352Z,10.65
2023-05-02T00:21:34.880Z,10.64
2023-05-02T00:22:35.633Z,10.68
2023-05-02T00:23:35.918Z,10.62
2023-05-02T00:24:36.825Z,10.65
2023-05-02T00:25:36.895Z,10.71
2023-05-02T00:26:37.644Z,10.61
2023-05-02T00:27:37.954Z,10.64
2023-05-02T00:28:38.706Z,10.65
2023-05-02T00:29:39.524Z,10.65
2023-05-02T00:30:40.254Z,10.59
2023-05-02T00:31:41.393Z,10.64
2023-05-02T00:32:41.600Z,10.69
2023-05-02T00:33:42.248Z,10.64
2023-05-02T00:34:42.778Z,10.59
2023-05-02T00:35:43.438Z,10.68
2023-05-02T00:36:44.408Z,10.69
2023-05-02T00:37:44.836Z,10.68
2023-05-02T00:38:44.944Z,10.68
2023-05-02T00:39:45.708Z,10.67
2023-05-02T00:40:46.239Z,10.61
2023-05-02T00:41:46.980Z,10.76
2023-05-02T00:42:47.477Z,10.62
2023-05-02T00:43:48.314Z,10.62
2023-05-02T00:44:48.788Z,10.68
2023-05-02T00:45:50.099Z,10.59
2023-05-02T00:46:50.752Z,10.69
2023-05-02T00:47:51.797Z,10.62
2023-05-02T00:48:52.625Z,10.64
2023-05-02T00:49:52.900Z,10.67
2023-05-02T00:50:54.180Z,10.75
2023-05-02T00:51:55.173Z,10.62
2023-05-02T00:52:55.367Z,10.71
2023-05-02T00:53:55.481Z,10.61
2023-05-02T00:54:56.615Z,10.69
2023-05-02T00:55:57.012Z,10.65
2023-05-02T00:56:57.712Z,10.61
2023-05-02T00:57:58.010Z,10.59
2023-05-02T00:58:58.751Z,10.68
2023-05-02T00:59:59.493Z,10.64
2023-05-02T01:00:59.409Z,10.68
2023-05-02T01:02:00.432Z,10.68
2023-05-02T01:03:00.924Z,10.62
2023-05-02T01:04:01.570Z,10.65
2023-05-02T01:05:01.760Z,10.72
2023-05-02T01:06:02.807Z,10.64
2023-05-02T01:07:03.041Z,10.58
2023-05-02T01:08:03.632Z,10.62
2023-05-02T01:09:03.902Z,10.59
2023-05-02T01:10:05.278Z,10.65
2023-05-02T01:11:05.044Z,10.62
2023-05-02T01:12:05.561Z,10.69
2023-05-02T01:13:06.271Z,10.65
2023-05-02T01:14:06.219Z,10.67
2023-05-02T01:15:06.764Z,10.65
2023-05-02T01:16:08.336Z,10.67
2023-05-02T01:17:08.235Z,10.76
2023-05-02T01:18:09.382Z,10.69
2023-05-02T01:19:09.907Z,10.65
2023-05-02T01:20:11.181Z,10.69
2023-05-02T01:21:11.856Z,10.75
2023-05-02T01:22:11.837Z,10.65
2023-05-02T01:23:12.581Z,10.71
2023-05-02T01:24:13.075Z,10.76
2023-05-02T01:25:13.757Z,10.76
2023-05-02T01:26:14.237Z,10.64
2023-05-02T01:27:15.217Z,10.75
2023-05-02T01:28:16.119Z,10.68
2023-05-02T01:29:16.857Z,10.65
2023-05-02T01:30:17.251Z,10.64
2023-05-02T01:31:17.733Z,10.58
2023-05-02T01:32:18.512Z,10.69
2023-05-02T01:33:18.598Z,10.55
2023-05-02T01:34:19.486Z,10.68
2023-05-02T01:35:19.983Z,10.69
2023-05-02T01:36:20.466Z,10.65
2023-05-02T01:37:21.104Z,10.61
2023-05-02T01:38:22.050Z,10.68
2023-05-02T01:39:22.571Z,10.69
2023-05-02T01:40:23.609Z,10.64
2023-05-02T01:41:23.889Z,10.62
2023-05-02T01:42:24.766Z,10.72
2023-05-02T01:43:25.253Z,10.69
2023-05-02T01:44:26.031Z,10.68
2023-05-02T01:45:26.539Z,10.67
2023-05-02T01:46:27.275Z,10.72
2023-05-02T01:47:27.745Z,10.65
2023-05-02T01:48:28.172Z,10.59
2023-05-02T01:49:28.656Z,10.67
2023-05-02T01:50:29.452Z,10.71
2023-05-02T01:51:29.725Z,10.65
2023-05-02T01:52:30.259Z,10.69
2023-05-02T01:53:30.995Z,10.65
2023-05-02T01:54:31.509Z,10.65
2023-05-02T01:55:32.234Z,10.65
2023-05-02T01:56:32.549Z,10.64
2023-05-02T01:57:33.509Z,10.65
2023-05-02T01:58:33.803Z,10.65
2023-05-02T01:59:34.762Z,10.59
2023-05-02T02:00:35.073Z,10.65
2023-05-02T02:01:35.935Z,10.69
2023-05-02T02:02:36.520Z,10.68
2023-05-02T02:03:37.794Z,10.65
2023-05-02T02:04:37.845Z,10.62
2023-05-02T02:05:38.424Z,10.68
2023-05-02T02:06:39.218Z,10.61
2023-05-02T02:07:40.264Z,10.67
2023-05-02T02:08:40.373Z,10.57
2023-05-02T02:09:40.876Z,10.69
2023-05-02T02:10:41.603Z,10.75
2023-05-02T02:11:42.723Z,10.67
2023-05-02T02:12:43.456Z,10.61
2023-05-02T02:13:44.160Z,10.72
2023-05-02T02:14:44.698Z,10.64
2023-05-02T02:15:45.398Z,10.67
2023-05-02T02:16:46.544Z,10.67
2023-05-02T02:17:47.305Z,10.65
2023-05-02T02:18:48.266Z,10.68
2023-05-02T02:19:48.755Z,10.65
2023-05-02T02:20:49.857Z,10.71
2023-05-02T02:21:50.132Z,10.62
2023-05-02T02:22:51.052Z,10.57
2023-05-02T02:23:51.574Z,10.62
2023-05-02T02:24:54.724Z,10.72
2023-05-02T02:25:52.440Z,10.61
2023-05-02T02:26:53.309Z,10.69
2023-05-02T02:27:54.227Z,10.59
2023-05-02T02:28:54.529Z,10.61
2023-05-02T02:29:55.288Z,10.62
2023-05-02T02:30:56.577Z,10.62
2023-05-02T02:31:56.437Z,10.64
2023-05-02T02:32:57.382Z,10.62
2023-05-02T02:33:57.976Z,10.65
2023-05-02T02:34:58.692Z,10.67
2023-05-02T02:35:59.278Z,10.58
2023-05-02T02:36:59.774Z,10.64
2023-05-02T02:38:00.700Z,10.61
2023-05-02T02:39:01.416Z,10.65
2023-05-02T02:40:02.447Z,10.64
2023-05-02T02:42:03.063Z,10.61
2023-05-02T02:43:03.773Z,10.61
2023-05-02T02:44:03.714Z,10.59
2023-05-02T02:45:04.451Z,10.67
2023-05-02T02:46:05.418Z,10.61
2023-05-02T02:47:06.213Z,10.61
2023-05-02T02:48:06.932Z,10.61
2023-05-02T02:49:07.070Z,10.62
2023-05-02T02:50:07.724Z,10.62
2023-05-02T02:51:08.526Z,10.62
2023-05-02T02:52:09.503Z,10.59
2023-05-02T02:53:10.434Z,10.67
2023-05-02T02:54:27.852Z,10.59
2023-05-02T02:56:11.952Z,10.64
2023-05-02T02:57:12.478Z,10.64
2023-05-02T02:58:13.004Z,10.62
2023-05-02T02:59:13.325Z,10.68
2023-05-02T03:00:14.370Z,10.61
2023-05-02T03:01:15.278Z,10.62
2023-05-02T03:02:16.375Z,10.58
2023-05-02T03:03:16.685Z,10.59
2023-05-02T03:04:16.661Z,10.68
2023-05-02T03:05:17.531Z,10.68
2023-05-02T03:06:18.310Z,10.67
2023-05-02T03:07:18.242Z,10.68
2023-05-02T03:08:18.762Z,10.64
2023-05-02T03:09:19.228Z,10.65
2023-05-02T03:10:19.903Z,10.62
2023-05-02T03:11:20.297Z,10.68
2023-05-02T03:12:21.594Z,10.59
2023-05-02T03:13:22.290Z,10.64
2023-05-02T03:14:22.460Z,10.58
2023-05-02T03:15:22.987Z,10.61
2023-05-02T03:16:23.932Z,10.64
2023-05-02T03:17:26.588Z,10.61
2023-05-02T03:18:25.021Z,10.55
2023-05-02T03:19:25.991Z,10.58
2023-05-02T03:20:26.320Z,10.58
2023-05-02T03:21:27.152Z,10.61
2023-05-02T03:22:28.270Z,10.61
2023-05-02T03:23:28.303Z,10.65
2023-05-02T03:24:29.267Z,10.62
2023-05-02T03:25:29.948Z,10.59
2023-05-02T03:26:30.445Z,10.61
2023-05-02T03:27:30.735Z,10.57
2023-05-02T03:28:31.203Z,10.49
2023-05-02T03:29:31.915Z,10.49
2023-05-02T03:30:31.855Z,10.43
2023-05-02T03:31:32.647Z,10.53
2023-05-02T03:32:33.421Z,10.55
2023-05-02T03:33:33.987Z,10.45
2023-05-02T03:34:34.501Z,10.42
2023-05-02T03:35:35.003Z,10.41
2023-05-02T03:36:35.523Z,10.41
2023-05-02T03:37:36.297Z,10.46
2023-05-02T03:38:37.051Z,10.43
2023-05-02T03:39:38.063Z,10.34
2023-05-02T03:40:38.365Z,10.38
2023-05-02T03:41:39.610Z,10.46
2023-05-02T03:42:40.475Z,10.39
2023-05-02T03:43:41.364Z,10.36
2023-05-02T03:44:41.854Z,10.36
2023-05-02T03:45:42.586Z,10.45
2023-05-02T03:46:43.105Z,10.46
2023-05-02T03:47:43.741Z,10.46
2023-05-02T03:48:44.731Z,10.48
2023-05-02T03:49:44.843Z,10.48
2023-05-02T03:50:45.767Z,10.46
2023-05-02T03:51:46.394Z,10.42
2023-05-02T03:52:47.101Z,10.41
2023-05-02T03:53:47.406Z,10.45
2023-05-02T03:54:48.716Z,10.45
2023-05-02T03:55:48.606Z,10.42
2023-05-02T03:56:49.704Z,10.39
2023-05-02T03:57:50.271Z,10.33
2023-05-02T03:58:50.964Z,10.39
2023-05-02T03:59:51.470Z,10.34
2023-05-02T04:00:51.697Z,10.34
2023-05-02T04:01:52.490Z,10.33
2023-05-02T04:02:53.623Z,10.36
2023-05-02T04:03:53.697Z,10.39
2023-05-02T04:04:53.663Z,10.34
2023-05-02T04:05:54.368Z,10.38
2023-05-02T04:06:55.388Z,10.36
2023-05-02T04:07:55.701Z,10.39
2023-05-02T04:08:56.474Z,10.31
2023-05-02T04:09:57.371Z,10.25
2023-05-02T04:10:57.412Z,10.25
2023-05-02T04:11:57.812Z,10.25
2023-05-02T04:12:58.098Z,10.27
2023-05-02T04:13:59.327Z,10.23
2023-05-02T04:14:59.237Z,10.3
2023-05-02T04:16:00.020Z,10.27
2023-05-02T04:17:01.112Z,10.23
2023-05-02T04:18:01.283Z,10.25
2023-05-02T04:19:00.932Z,10.2
2023-05-02T04:20:05.782Z,10.23
2023-05-02T04:21:02.664Z,10.21
2023-05-02T04:22:02.952Z,10.24
2023-05-02T04:23:03.660Z,10.23
2023-05-02T04:24:04.262Z,10.25
2023-05-02T04:25:05.215Z,10.31
2023-05-02T04:26:06.107Z,10.27
2023-05-02T04:27:06.632Z,10.25
2023-05-02T04:28:07.472Z,10.24
2023-05-02T04:29:07.985Z,10.24
2023-05-02T04:30:09.495Z,10.3
2023-05-02T04:31:09.287Z,10.23
2023-05-02T04:32:09.723Z,10.25
2023-05-02T04:33:10.827Z,10.24
2023-05-02T04:34:10.682Z,10.25
2023-05-02T04:35:11.651Z,10.23
2023-05-02T04:36:12.183Z,10.2
2023-05-02T04:37:12.672Z,10.2
2023-05-02T04:38:13.379Z,10.33
2023-05-02T04:39:14.302Z,10.39
2023-05-02T04:40:14.827Z,10.3
2023-05-02T04:41:15.571Z,10.36
2023-05-02T04:42:16.669Z,10.42
2023-05-02T04:43:17.360Z,10.48
2023-05-02T04:44:18.291Z,10.39
2023-05-02T04:45:18.808Z,10.39
2023-05-02T04:46:19.834Z,10.41
2023-05-02T04:47:20.538Z,10.39
2023-05-02T04:48:21.346Z,10.48
2023-05-02T04:49:21.688Z,10.41
2023-05-02T04:50:22.781Z,10.45
2023-05-02T04:51:22.708Z,10.41
2023-05-02T04:52:23.332Z,10.49
2023-05-02T04:53:24.217Z,10.43
2023-05-02T04:54:24.875Z,10.42
2023-05-02T04:55:25.800Z,10.38
2023-05-02T04:56:26.502Z,10.34
2023-05-02T04:57:28.820Z,10.45
2023-05-02T04:59:27.606Z,10.39
2023-05-02T05:00:27.922Z,10.34
2023-05-02T05:01:28.852Z,10.42
2023-05-02T05:02:30.099Z,10.45
2023-05-02T05:03:31.424Z,10.39
2023-05-02T05:04:31.431Z,10.42
2023-05-02T05:05:32.334Z,10.36
2023-05-02T05:06:32.776Z,10.42
2023-05-02T05:07:32.817Z,10.41
2023-05-02T05:08:33.563Z,10.53
2023-05-02T05:09:34.486Z,10.43
2023-05-02T05:10:35.003Z,10.49
2023-05-02T05:11:35.801Z,10.45
2023-05-02T05:12:36.691Z,10.53
2023-05-02T05:13:37.554Z,10.53
2023-05-02T05:14:38.242Z,10.58
2023-05-02T05:15:38.364Z,10.57
2023-05-02T05:16:39.463Z,10.46
2023-05-02T05:17:39.507Z,10.55
2023-05-02T05:18:40.540Z,10.62
2023-05-02T05:19:40.798Z,10.57
2023-05-02T05:20:40.793Z,10.51
2023-05-02T05:21:41.100Z,10.59
2023-05-02T05:22:42.451Z,10.55
2023-05-02T05:23:42.951Z,10.62
2023-05-02T05:24:43.698Z,10.61
2023-05-02T05:25:46.289Z,10.62
2023-05-02T05:26:45.007Z,10.58
2023-05-02T05:27:45.734Z,10.64
2023-05-02T05:28:46.590Z,10.67
2023-05-02T05:29:47.097Z,10.69
2023-05-02T05:30:47.930Z,10.58
2023-05-02T05:31:48.901Z,10.65
2023-05-02T05:32:50.050Z,10.69
2023-05-02T05:33:50.780Z,10.72
2023-05-02T05:34:51.491Z,10.68
2023-05-02T05:35:52.453Z,10.65
2023-05-02T05:36:52.933Z,10.57
2023-05-02T05:37:53.871Z,10.68
2023-05-02T05:38:54.010Z,10.59
2023-05-02T05:39:54.138Z,10.71
2023-05-02T05:40:54.675Z,10.75
2023-05-02T05:41:54.381Z,10.71
2023-05-02T05:42:54.771Z,10.79
2023-05-02T05:43:55.488Z,10.77
2023-05-02T05:44:56.022Z,10.76
2023-05-02T05:45:56.505Z,10.84
2023-05-02T05:46:57.536Z,10.84
2023-05-02T05:47:58.507Z,10.82
2023-05-02T05:48:58.767Z,10.8
2023-05-02T05:49:59.997Z,10.84
2023-05-02T05:50:59.813Z,10.82
2023-05-02T05:52:00.519Z,10.79
2023-05-02T05:53:01.748Z,10.83
2023-05-02T05:54:02.462Z,10.84
2023-05-02T05:55:03.211Z,10.92
2023-05-02T05:56:03.973Z,10.82
2023-05-02T05:57:04.688Z,10.87
2023-05-02T05:58:05.390Z,10.83
2023-05-02T05:59:05.937Z,10.92
2023-05-02T06:00:06.716Z,10.9
2023-05-02T06:01:07.470Z,10.89
2023-05-02T06:02:08.321Z,10.9
2023-05-02T06:03:10.346Z,10.9
2023-05-02T06:04:09.584Z,11.04
2023-05-02T06:05:09.798Z,11.07
2023-05-02T06:06:10.362Z,11.12
2023-05-02T06:07:11.155Z,11.16
2023-05-02T06:08:11.458Z,11.15
2023-05-02T06:09:12.788Z,11.13
2023-05-02T06:10:13.530Z,11.23
2023-05-02T06:11:14.058Z,11.25
2023-05-02T06:12:13.764Z,11.23
2023-05-02T06:13:14.193Z,11.23
2023-05-02T06:14:14.740Z,11.27
2023-05-02T06:15:15.509Z,11.23
2023-05-02T06:16:16.398Z,11.19
2023-05-02T06:17:16.528Z,11.27
2023-05-02T06:18:16.908Z,11.34
2023-05-02T06:19:17.462Z,11.3
2023-05-02T06:20:19.254Z,11.34
2023-05-02T06:21:18.404Z,11.35
2023-05-02T06:22:18.906Z,11.31
2023-05-02T06:23:20.291Z,11.35
2023-05-02T06:24:21.370Z,11.35
2023-05-02T06:25:21.887Z,11.37
2023-05-02T06:26:22.494Z,11.37
2023-05-02T06:27:23.382Z,11.33
2023-05-02T06:28:24.098Z,11.34
2023-05-02T06:29:24.638Z,11.4
2023-05-02T06:30:25.172Z,11.37
2023-05-02T06:31:25.181Z,11.41
2023-05-02T06:32:25.385Z,11.37
2023-05-02T06:33:25.916Z,11.34
2023-05-02T06:34:26.809Z,11.44
2023-05-02T06:35:27.517Z,11.44
2023-05-02T06:36:28.320Z,11.45
2023-05-02T06:37:29.038Z,11.52
2023-05-02T06:38:29.682Z,11.48
2023-05-02T06:39:30.475Z,11.59
2023-05-02T06:40:30.626Z,11.52
2023-05-02T06:41:31.162Z,11.55
2023-05-02T06:42:32.061Z,11.62
2023-05-02T06:43:32.615Z,11.6
2023-05-02T06:44:32.699Z,11.67
2023-05-02T06:45:33.380Z,11.67
2023-05-02T06:46:34.207Z,11.65
2023-05-02T06:47:35.647Z,11.76
2023-05-02T06:48:36.082Z,11.78
2023-05-02T06:49:36.603Z,11.74
2023-05-02T06:50:36.518Z,11.74
2023-05-02T06:51:37.322Z,11.81
2023-05-02T06:52:37.868Z,11.76
2023-05-02T06:53:39.132Z,11.74
2023-05-02T06:54:39.232Z,11.83
2023-05-02T06:55:39.928Z,11.83
2023-05-02T06:56:39.860Z,11.78
2023-05-02T06:57:40.571Z,11.8
2023-05-02T06:58:41.477Z,11.74
2023-05-02T06:59:42.198Z,11.81
2023-05-02T07:00:43.451Z,11.81
2023-05-02T07:01:43.714Z,11.8
2023-05-02T07:02:43.827Z,11.81
2023-05-02T07:03:43.906Z,11.86
2023-05-02T07:04:45.193Z,11.91
2023-05-02T07:05:45.418Z,11.89
2023-05-02T07:06:45.572Z,11.89
2023-05-02T07:07:45.751Z,11.91
2023-05-02T07:08:46.663Z,11.96
2023-05-02T07:09:47.403Z,12.05
2023-05-02T07:10:48.241Z,11.88
2023-05-02T07:11:48.980Z,11.93
2023-05-02T07:12:49.576Z,11.93
2023-05-02T07:13:50.196Z,12
2023-05-02T07:14:51.244Z,12.02
2023-05-02T07:15:51.790Z,12.05
2023-05-02T07:16:52.534Z,12.1
2023-05-02T07:17:52.842Z,12.03
2023-05-02T07:18:52.749Z,12.07
2023-05-02T07:19:53.439Z,12.12
2023-05-02T07:20:53.539Z,12.18
2023-05-02T07:21:53.846Z,12.17
2023-05-02T07:22:54.756Z,12.21
2023-05-02T07:24:55.807Z,12.15
2023-05-02T07:25:56.742Z,12.32
2023-05-02T07:26:56.848Z,12.3
2023-05-02T07:27:57.591Z,12.32
2023-05-02T07:28:58.117Z,12.35
2023-05-02T07:29:59.772Z,12.4
2023-05-02T07:30:59.423Z,12.36
2023-05-02T07:32:00.039Z,12.45
2023-05-02T07:33:01.426Z,12.53
2023-05-02T07:35:02.222Z,12.58
2023-05-02T07:36:02.064Z,12.63
2023-05-02T07:37:02.622Z,12.81
2023-05-02T07:38:03.731Z,12.8
2023-05-02T07:39:04.448Z,12.94
2023-05-02T07:40:05.771Z,13.02
2023-05-02T07:41:05.596Z,13.06
2023-05-02T07:42:06.810Z,13.19
2023-05-02T07:43:10.553Z,13.28
2023-05-02T07:45:09.045Z,13.23
2023-05-02T07:46:09.684Z,13.26
2023-05-02T07:47:10.549Z,13.27
2023-05-02T07:48:11.714Z,13.26
2023-05-02T07:49:12.710Z,13.33
2023-05-02T07:50:13.787Z,13.4
2023-05-02T07:51:14.443Z,13.33
2023-05-02T07:52:14.780Z,13.45
2023-05-02T07:53:15.744Z,13.46
2023-05-02T07:54:16.725Z,13.49
2023-05-02T07:55:17.429Z,13.42
2023-05-02T07:56:17.971Z,13.46
2023-05-02T07:57:18.571Z,13.46
2023-05-02T07:58:19.550Z,13.43
2023-05-02T07:59:20.477Z,13.5
2023-05-02T08:00:21.761Z,13.6
2023-05-02T08:01:22.291Z,13.76
2023-05-02T08:02:22.965Z,13.8
2023-05-02T08:03:23.993Z,13.85
2023-05-02T08:04:24.784Z,13.85
2023-05-02T08:05:24.420Z,13.97
2023-05-02T08:06:24.611Z,13.91
2023-05-02T08:07:24.840Z,13.97
2023-05-02T08:08:25.670Z,13.97
2023-05-02T08:09:26.395Z,13.97
2023-05-02T08:10:26.475Z,13.91
2023-05-02T08:11:29.121Z,14
2023-05-02T08:13:27.965Z,14.15
2023-05-02T08:14:28.402Z,14.16
2023-05-02T08:15:29.323Z,14.3
2023-05-02T08:16:30.457Z,14.28
2023-05-02T08:17:30.384Z,14.34
2023-05-02T08:18:31.521Z,14.41
2023-05-02T08:19:32.033Z,14.41
2023-05-02T08:20:32.777Z,14.44
2023-05-02T08:21:32.970Z,14.53
2023-05-02T08:22:33.963Z,14.51
2023-05-02T08:23:33.994Z,14.43
2023-05-02T08:24:34.194Z,14.58
2023-05-02T08:25:35.105Z,14.44
2023-05-02T08:26:35.308Z,14.4
2023-05-02T08:27:35.414Z,14.33
2023-05-02T08:28:36.595Z,14.41
2023-05-02T08:29:37.322Z,14.53
2023-05-02T08:30:38.222Z,14.56
2023-05-02T08:31:39.297Z,14.61
2023-05-02T08:32:40.196Z,14.67
2023-05-02T08:33:40.411Z,14.82
2023-05-02T08:34:41.253Z,14.87
2023-05-02T08:35:40.980Z,14.92
2023-05-02T08:36:41.960Z,14.97
2023-05-02T08:37:42.953Z,14.97
2023-05-02T08:38:43.518Z,14.92
2023-05-02T08:39:44.219Z,14.87
2023-05-02T08:40:47.938Z,14.99
2023-05-02T08:42:45.811Z,15.04
2023-05-02T08:43:45.916Z,15.02
2023-05-02T08:44:46.506Z,14.99
2023-05-02T08:45:47.658Z,15
2023-05-02T08:46:48.778Z,14.96
2023-05-02T08:47:49.202Z,14.87
2023-05-02T08:48:49.460Z,14.87
2023-05-02T08:49:50.573Z,14.85
2023-05-02T08:50:51.374Z,14.73
2023-05-02T08:51:51.871Z,14.67
2023-05-02T08:52:52.853Z,14.58
2023-05-02T08:53:53.618Z,14.55
2023-05-02T08:54:54.226Z,14.55
2023-05-02T08:55:54.575Z,14.48
2023-05-02T08:56:55.294Z,14.44
2023-05-02T08:57:55.459Z,14.37
2023-05-02T08:58:55.622Z,14.43
2023-05-02T08:59:56.114Z,14.26
2023-05-02T09:00:57.247Z,14.33
2023-05-02T09:01:58.025Z,14.37
2023-05-02T09:02:58.878Z,14.26
2023-05-02T09:04:00.119Z,14.18
2023-05-02T09:05:00.776Z,14.18
2023-05-02T09:06:00.850Z,14.11
2023-05-02T09:07:00.841Z,14.13
2023-05-02T09:08:01.563Z,14.03
2023-05-02T09:09:02.007Z,14.05
2023-05-02T09:10:02.742Z,14
2023-05-02T09:11:03.476Z,13.87
2023-05-02T09:12:04.412Z,13.91
2023-05-02T09:13:05.179Z,13.73
2023-05-02T09:14:05.137Z,13.78
2023-05-02T09:15:06.298Z,13.75
2023-05-02T09:16:07.061Z,13.7
2023-05-02T09:17:08.259Z,13.61
2023-05-02T09:18:09.126Z,13.61
2023-05-02T09:19:10.041Z,13.45
2023-05-02T09:20:11.022Z,13.39
2023-05-02T09:21:13.249Z,13.27
2023-05-02T09:22:12.633Z,13.39
2023-05-02T09:23:13.181Z,13.37
2023-05-02T09:24:13.937Z,13.23
2023-05-02T09:25:14.872Z,13.39
2023-05-02T09:26:15.366Z,13.33
2023-05-02T09:27:15.696Z,13.2
2023-05-02T09:28:16.650Z,13.21
2023-05-02T09:29:17.352Z,13.27
2023-05-02T09:30:18.316Z,13.24
2023-05-02T09:31:55.932Z,13.19
2023-05-02T09:32:20.169Z,13.27
2023-05-02T09:33:19.960Z,13.26
2023-05-02T09:34:20.705Z,13.16
2023-05-02T09:35:21.798Z,13.12
2023-05-02T09:36:21.520Z,13.06
2023-05-02T09:37:22.093Z,13.08
2023-05-02T09:38:22.870Z,13.05
2023-05-02T09:39:26.521Z,13.08
2023-05-02T09:40:24.701Z,13.02
2023-05-02T09:41:25.203Z,12.94
2023-05-02T09:42:26.161Z,12.83
2023-05-02T09:43:26.909Z,12.78
2023-05-02T09:44:27.680Z,12.62
2023-05-02T09:45:27.934Z,12.66
2023-05-02T09:46:28.967Z,12.58
2023-05-02T09:47:29.251Z,12.48
2023-05-02T09:48:29.960Z,12.53
2023-05-02T09:49:30.108Z,12.54
2023-05-02T09:50:30.256Z,12.45
2023-05-02T09:51:30.838Z,12.53
2023-05-02T09:52:31.376Z,12.61
2023-05-02T09:53:32.233Z,12.54
2023-05-02T09:54:32.774Z,12.61
2023-05-02T09:55:33.023Z,12.57
2023-05-02T09:56:34.112Z,12.5
2023-05-02T09:57:34.819Z,12.57
2023-05-02T09:58:35.397Z,12.57
2023-05-02T09:59:35.739Z,12.55
2023-05-02T10:00:36.131Z,12.55
2023-05-02T10:01:37.165Z,12.5
2023-05-02T10:02:38.125Z,12.43
2023-05-02T10:03:38.293Z,12.5
2023-05-02T10:04:39.104Z,12.39
2023-05-02T10:05:38.757Z,12.37
2023-05-02T10:06:40.120Z,12.47
2023-05-02T10:07:40.244Z,12.47
2023-05-02T10:08:41.395Z,12.53
2023-05-02T10:09:42.104Z,12.61
2023-05-02T10:10:43.088Z,12.57
2023-05-02T10:11:42.783Z,12.62
2023-05-02T10:12:43.529Z,12.62
2023-05-02T10:13:44.299Z,12.61
2023-05-02T10:14:45.078Z,12.63
2023-05-02T10:15:46.262Z,12.66
2023-05-02T10:16:46.807Z,12.65
2023-05-02T10:17:47.715Z,12.84
2023-05-02T10:18:48.695Z,12.76
2023-05-02T10:19:48.691Z,12.9
2023-05-02T10:20:49.647Z,12.98
2023-05-02T10:21:50.341Z,12.94
2023-05-02T10:22:51.268Z,13.08
2023-05-02T10:23:52.017Z,13.01
2023-05-02T10:24:52.746Z,13.08
2023-05-02T10:25:52.998Z,13.16
2023-05-02T10:26:53.492Z,13.17
2023-05-02T10:27:54.653Z,13.19
2023-05-02T10:28:55.207Z,13.12
2023-05-02T10:29:55.703Z,13.26
2023-05-02T10:30:56.923Z,13.27
2023-05-02T10:31:57.978Z,13.36
2023-05-02T10:32:58.913Z,13.4
2023-05-02T10:33:59.730Z,13.39
2023-05-02T10:35:01.413Z,13.31
2023-05-02T10:36:01.429Z,13.37
2023-05-02T10:37:02.157Z,13.24
2023-05-02T10:38:03.099Z,13.28
2023-05-02T10:39:04.034Z,13.19
2023-05-02T10:40:04.767Z,13.24
2023-05-02T10:41:05.833Z,13.28
2023-05-02T10:42:05.785Z,13.27
2023-05-02T10:43:06.966Z,13.26
2023-05-02T10:44:07.673Z,13.28
2023-05-02T10:45:08.308Z,13.27
2023-05-02T10:46:09.046Z,13.09
2023-05-02T10:47:10.027Z,13.16
2023-05-02T10:48:10.420Z,13.16
2023-05-02T10:49:10.341Z,13.13
2023-05-02T10:50:11.564Z,13.24
2023-05-02T10:51:11.689Z,13.11
2023-05-02T10:52:12.185Z,13.16
2023-05-02T10:53:12.914Z,13.23
2023-05-02T10:54:13.835Z,13.26
2023-05-02T10:55:14.562Z,13.23
2023-05-02T10:56:15.207Z,13.3
2023-05-02T10:57:15.415Z,13.23
2023-05-02T10:58:16.186Z,13.19
2023-05-02T10:59:17.175Z,13.21
2023-05-02T11:00:17.905Z,13.16
2023-05-02T11:01:18.778Z,13.26
2023-05-02T11:02:19.869Z,13.28
2023-05-02T11:03:21.336Z,13.26
2023-05-02T11:04:21.732Z,13.26
2023-05-02T11:05:21.708Z,13.26
2023-05-02T11:06:22.958Z,13.37
2023-05-02T11:07:23.090Z,13.27
2023-05-02T11:08:26.090Z,13.4
2023-05-02T11:10:24.920Z,13.54
2023-05-02T11:11:25.677Z,13.52
2023-05-02T11:12:26.775Z,13.67
2023-05-02T11:13:27.328Z,13.73
2023-05-02T11:14:28.091Z,13.76
2023-05-02T11:15:28.882Z,13.76
2023-05-02T11:16:29.970Z,13.82
2023-05-02T11:17:30.067Z,13.85
2023-05-02T11:18:30.884Z,13.82
2023-05-02T11:19:32.102Z,13.94
2023-05-02T11:20:32.021Z,14.01
2023-05-02T11:21:32.853Z,14.04
2023-05-02T11:22:33.833Z,14.07
2023-05-02T11:23:34.019Z,14.12
2023-05-02T11:24:34.014Z,14.19
2023-05-02T11:25:36.515Z,14.19
2023-05-02T11:27:35.913Z,14.36
2023-05-02T11:28:36.065Z,14.49
2023-05-02T11:29:36.649Z,14.49
2023-05-02T11:30:37.380Z,14.55
2023-05-02T11:31:38.194Z,14.51
2023-05-02T11:32:39.262Z,14.44
2023-05-02T11:33:39.289Z,14.36
2023-05-02T11:34:40.056Z,14.3
2023-05-02T11:35:40.841Z,14.3
2023-05-02T11:36:41.716Z,14.23
2023-05-02T11:37:42.415Z,14.01
2023-05-02T11:38:43.133Z,14.05
2023-05-02T11:39:43.677Z,13.93
2023-05-02T11:40:44.190Z,14.01
2023-05-02T11:41:44.927Z,13.86
2023-05-02T11:42:45.766Z,13.82
2023-05-02T11:43:46.501Z,13.83
2023-05-02T11:44:47.247Z,13.73
2023-05-02T11:45:47.613Z,13.83
2023-05-02T11:46:48.995Z,13.8
2023-05-02T11:47:49.221Z,13.8
2023-05-02T11:48:49.528Z,13.83
2023-05-02T11:49:49.841Z,13.83
2023-05-02T11:50:55.733Z,13.87
2023-05-02T11:52:52.006Z,13.75
2023-05-02T11:53:52.512Z,13.8
2023-05-02T11:54:53.260Z,13.75
2023-05-02T11:55:53.871Z,13.65
2023-05-02T11:56:54.690Z,13.76
2023-05-02T11:57:55.242Z,13.61
2023-05-02T11:58:56.434Z,13.54
2023-05-02T11:59:56.625Z,13.61
2023-05-02T12:00:57.390Z,13.61
2023-05-02T12:01:57.871Z,13.52
2023-05-02T12:02:58.773Z,13.6
2023-05-02T12:03:59.785Z,13.64
2023-05-02T12:05:01.132Z,13.67
2023-05-02T12:06:01.731Z,13.65
2023-05-02T12:07:02.620Z,13.68
2023-05-02T12:08:02.955Z,13.71
2023-05-02T12:09:03.665Z,13.68
2023-05-02T12:10:03.661Z,13.73
2023-05-02T12:11:03.930Z,13.75
2023-05-02T12:12:04.133Z,13.8
2023-05-02T12:13:05.028Z,14.01
2023-05-02T12:14:05.761Z,13.91
2023-05-02T12:15:06.908Z,14.03
2023-05-02T12:16:06.970Z,14.11
2023-05-02T12:17:07.393Z,14.23
2023-05-02T12:18:07.504Z,14.31
2023-05-02T12:19:07.965Z,14.36
2023-05-02T12:20:09.096Z,14.4
2023-05-02T12:21:09.122Z,14.3
2023-05-02T12:22:09.837Z,14.43
2023-05-02T12:23:10.541Z,14.43
2023-05-02T12:24:11.504Z,14.37
2023-05-02T12:25:11.379Z,14.43
2023-05-02T12:26:12.314Z,14.41
2023-05-02T12:27:12.488Z,14.51
2023-05-02T12:28:13.285Z,14.49
2023-05-02T12:29:14.252Z,14.58
2023-05-02T12:30:14.826Z,14.67
2023-05-02T12:31:15.735Z,14.71
2023-05-02T12:32:16.785Z,14.78
2023-05-02T12:33:17.481Z,14.74
2023-05-02T12:34:17.606Z,14.78
2023-05-02T12:35:18.151Z,14.77
2023-05-02T12:36:19.254Z,14.74
2023-05-02T12:37:19.883Z,14.71
2023-05-02T12:38:20.202Z,14.85
2023-05-02T12:39:21.132Z,14.86
2023-05-02T12:40:21.868Z,14.86
2023-05-02T12:41:22.416Z,14.9
2023-05-02T12:42:23.809Z,14.93
2023-05-02T12:43:24.077Z,14.86
2023-05-02T12:44:24.292Z,14.94
2023-05-02T12:45:25.026Z,14.82
2023-05-02T12:46:25.382Z,14.93
2023-05-02T12:47:26.452Z,14.9
2023-05-02T12:48:26.371Z,15.02
2023-05-02T12:49:27.081Z,15.04
2023-05-02T12:50:28.014Z,15.05
2023-05-02T12:51:29.014Z,15.08
2023-05-02T12:52:28.894Z,15.02
2023-05-02T12:53:29.562Z,15.02
2023-05-02T12:54:30.683Z,15.08
2023-05-02T12:55:30.635Z,15.14
2023-05-02T12:56:31.364Z,15.08
2023-05-02T12:57:32.212Z,15.05
2023-05-02T12:58:32.940Z,15.07
2023-05-02T12:59:33.705Z,15.08
2023-05-02T13:00:34.558Z,15.08
2023-05-02T13:01:35.646Z,14.94
2023-05-02T13:02:36.033Z,14.86
2023-05-02T13:03:36.812Z,14.94
2023-05-02T13:04:37.421Z,14.87
2023-05-02T13:05:37.574Z,14.86
2023-05-02T13:06:38.093Z,14.87
2023-05-02T13:07:38.153Z,14.78
2023-05-02T13:08:38.851Z,14.81
2023-05-02T13:09:39.845Z,14.85
2023-05-02T13:10:40.611Z,14.81
2023-05-02T13:11:41.426Z,14.85
2023-05-02T13:12:42.306Z,14.71
2023-05-02T13:13:42.823Z,14.59